createdAt,value
2022-08-22T00:00:00.071Z,100522.59
2022-08-22T00:02:43.622Z,100508.06
2022-08-22T00:02:43.675Z,100510.29
2022-08-22T00:02:46.942Z,100489.42
2022-08-22T00:02:56.363Z,100476.09
2022-08-22T00:03:24.183Z,100523.66
2022-08-22T00:06:32.482Z,100514.77
2022-08-22T00:09:41.350Z,100516.02
2022-08-22T00:12:47.705Z,100515.04
2022-08-22T00:15:47.624Z,100517.06
2022-08-22T00:18:52.955Z,100518.13
2022-08-22T00:21:54.186Z,100522.25
2022-08-22T00:24:56.714Z,100531.41
2022-08-22T00:28:05.496Z,100528.77
2022-08-22T00:31:10.270Z,100528.85
2022-08-22T00:34:13.051Z,100530.21
2022-08-22T00:37:12.996Z,100532.37
2022-08-22T00:40:32.378Z,100529.77
2022-08-22T00:44:24.300Z,100530.92
2022-08-22T00:47:36.031Z,100538.48
2022-08-22T00:51:18.732Z,100536.79
2022-08-22T00:54:22.181Z,100539.23
2022-08-22T00:57:29.805Z,100542.23
2022-08-22T01:00:26.120Z,100542.52
2022-08-22T01:04:05.045Z,100545.59
2022-08-22T01:07:38.285Z,100544.77
2022-08-22T01:11:02.914Z,100548.11
2022-08-22T01:14:17.904Z,100544.27
2022-08-22T01:18:02.099Z,100545.81
2022-08-22T01:21:35.225Z,100541.41
2022-08-22T01:25:28.296Z,100541.59
2022-08-22T01:28:56.269Z,100539.17
2022-08-22T01:32:37.143Z,100542.31
2022-08-22T01:36:00.514Z,100538.60
2022-08-22T01:39:16.858Z,100535.64
2022-08-22T01:42:59.787Z,100539.02
2022-08-22T01:46:23.882Z,100537.05
2022-08-22T01:49:24.713Z,100539.44
2022-08-22T01:52:22.134Z,100535.48
2022-08-22T01:55:29.861Z,100532.56
2022-08-22T01:58:28.414Z,100532.80
2022-08-22T02:01:34.280Z,100536.56
2022-08-22T02:04:43.878Z,100534.98
2022-08-22T02:07:51.490Z,100539.64
2022-08-22T02:10:58.847Z,100540.55
2022-08-22T02:13:58.354Z,100544.30
2022-08-22T02:16:57.597Z,100539.70
2022-08-22T02:19:58.958Z,100544.45
2022-08-22T02:23:01.904Z,100545.63
2022-08-22T02:26:00.357Z,100549.48
2022-08-22T02:29:03.336Z,100551.81
2022-08-22T02:32:07.837Z,100554.58
2022-08-22T02:35:13.523Z,100550.40
2022-08-22T02:38:24.243Z,100554.32
2022-08-22T02:41:28.348Z,100557.33
2022-08-22T02:44:34.123Z,100557.00
2022-08-22T02:47:37.173Z,100558.61
2022-08-22T02:50:39.575Z,100560.91
2022-08-22T02:53:47.487Z,100560.42
2022-08-22T02:56:48.412Z,100562.37
2022-08-22T03:00:31.945Z,100563.40
2022-08-22T03:03:32.069Z,100568.05
2022-08-22T03:06:42.462Z,100567.90
2022-08-22T03:09:42.416Z,100568.14
2022-08-22T03:12:46.440Z,100563.87
2022-08-22T03:15:50.250Z,100567.34
2022-08-22T03:18:57.459Z,100565.61
2022-08-22T03:22:03.386Z,100564.63
2022-08-22T03:25:10.521Z,100563.84
2022-08-22T03:28:11.477Z,100563.64
2022-08-22T03:31:19.544Z,100565.13
2022-08-22T03:34:28.302Z,100564.70
2022-08-22T03:37:30.005Z,100565.06
2022-08-22T03:40:37.638Z,100567.00
2022-08-22T03:44:00.372Z,100567.17
2022-08-22T03:47:24.828Z,100568.45
2022-08-22T03:51:07.412Z,100569.98
2022-08-22T03:54:52.997Z,100570.45
2022-08-22T03:58:27.567Z,100568.55
2022-08-22T04:01:50.809Z,100565.84
2022-08-22T04:05:28.772Z,100567.93
2022-08-22T04:08:53.025Z,100567.37
2022-08-22T04:12:28.210Z,100574.91
2022-08-22T04:16:16.021Z,100577.91
2022-08-22T04:19:42.209Z,100577.25
2022-08-22T04:23:15.092Z,100576.05
2022-08-22T04:26:17.285Z,100583.68
2022-08-22T04:29:23.979Z,100587.63
2022-08-22T04:32:28.187Z,100590.99
2022-08-22T04:35:35.413Z,100596.54
2022-08-22T04:38:37.416Z,100599.06
2022-08-22T04:41:46.885Z,100595.40
2022-08-22T04:44:50.292Z,100594.78
2022-08-22T04:47:58.889Z,100600.89
2022-08-22T04:51:05.263Z,100598.29
2022-08-22T04:54:38.749Z,100602.86
2022-08-22T04:57:56.503Z,100603.36
2022-08-22T05:01:02.998Z,100610.61
2022-08-22T05:04:07.386Z,100603.94
2022-08-22T05:07:19.462Z,100608.15
2022-08-22T05:10:34.714Z,100607.95
2022-08-22T05:13:47.881Z,100614.51
2022-08-22T05:17:03.444Z,100614.68
2022-08-22T05:20:17.414Z,100612.42
2022-08-22T05:23:25.627Z,100608.95
2022-08-22T05:26:29.886Z,100613.41
2022-08-22T05:29:37.618Z,100614.36
2022-08-22T05:32:52.582Z,100618.20
2022-08-22T05:35:57.849Z,100620.96
2022-08-22T05:39:05.420Z,100618.78
2022-08-22T05:42:10.293Z,100619.06
2022-08-22T05:45:12.355Z,100621.75
2022-08-22T05:48:16.209Z,100622.78
2022-08-22T05:51:23.306Z,100620.86
2022-08-22T05:54:47.471Z,100620.61
2022-08-22T05:57:52.069Z,100622.55
2022-08-22T06:00:56.727Z,100625.06
2022-08-22T06:04:02.716Z,100629.21
2022-08-22T06:07:19.624Z,100627.92
2022-08-22T06:10:30.236Z,100630.50
2022-08-22T06:14:02.354Z,100634.79
2022-08-22T06:18:03.760Z,100639.65
2022-08-22T06:21:16.209Z,100639.98
2022-08-22T06:25:02.377Z,100644.42
2022-08-22T06:29:04.610Z,100644.41
2022-08-22T06:32:58.184Z,100645.79
2022-08-22T06:36:04.799Z,100646.36
2022-08-22T06:39:27.555Z,100641.08
2022-08-22T06:42:41.545Z,100643.97
2022-08-22T06:45:56.946Z,100645.36
2022-08-22T06:49:14.890Z,100653.34
2022-08-22T06:52:22.511Z,100656.60
2022-08-22T06:55:28.329Z,100655.20
2022-08-22T06:58:34.192Z,100653.89
2022-08-22T07:01:52.800Z,100654.17
2022-08-22T07:05:16.525Z,100657.88
2022-08-22T07:09:37.804Z,100665.91
2022-08-22T07:18:07.532Z,100662.91
2022-08-22T07:25:38.295Z,100673.81
2022-08-22T07:29:15.793Z,100676.20
2022-08-22T07:32:46.323Z,100684.02
2022-08-22T07:36:05.739Z,100684.06
2022-08-22T07:39:44.289Z,100688.01
2022-08-22T07:43:00.371Z,100689.90
2022-08-22T07:46:09.379Z,100691.83
2022-08-22T07:49:27.502Z,100697.60
2022-08-22T07:52:39.621Z,100697.14
2022-08-22T07:55:49.504Z,100699.77
2022-08-22T07:59:08.003Z,100698.67
2022-08-22T08:02:28.802Z,100695.91
2022-08-22T08:05:39.909Z,100695.70
2022-08-22T08:08:50.464Z,100699.62
2022-08-22T08:11:57.555Z,100702.30
2022-08-22T08:15:14.682Z,100700.64
2022-08-22T08:18:30.476Z,100702.74
2022-08-22T08:21:48.581Z,100707.60
2022-08-22T08:24:56.246Z,100707.89
2022-08-22T08:28:21.038Z,100707.43
2022-08-22T08:31:44.715Z,100708.30
2022-08-22T08:34:55.429Z,100703.96
2022-08-22T08:38:04.193Z,100703.52
2022-08-22T08:41:39.244Z,100701.41
2022-08-22T08:45:18.641Z,100699.07
2022-08-22T08:48:56.263Z,100702.55
2022-08-22T08:52:33.618Z,100698.94
2022-08-22T08:55:53.665Z,100702.16
2022-08-22T08:59:13.754Z,100706.84
2022-08-22T09:02:55.350Z,100704.04
2022-08-22T09:06:13.363Z,100693.09
2022-08-22T09:09:54.180Z,100700.83
2022-08-22T09:13:34.603Z,100701.90
2022-08-22T09:17:18.612Z,100698.93
2022-08-22T09:20:49.665Z,100693.53
2022-08-22T09:24:38.405Z,100696.95
2022-08-22T09:27:51.038Z,100699.08
2022-08-22T09:31:51.955Z,100701.84
2022-08-22T09:35:11.578Z,100704.52
2022-08-22T09:38:51.097Z,100709.20
2022-08-22T09:42:09.372Z,100703.97
2022-08-22T09:45:53.661Z,100702.95
2022-08-22T09:49:16.450Z,100698.41
2022-08-22T09:52:35.677Z,100690.70
2022-08-22T09:55:53.773Z,100691.94
2022-08-22T09:59:13.778Z,100690.83
2022-08-22T10:02:43.606Z,100692.84
2022-08-22T10:06:03.450Z,100690.61
2022-08-22T10:09:34.641Z,100688.46
2022-08-22T10:12:49.210Z,100688.02
2022-08-22T10:16:09.152Z,100685.17
2022-08-22T10:19:27.642Z,100682.36
2022-08-22T10:22:48.529Z,100674.44
2022-08-22T10:26:03.330Z,100675.69
2022-08-22T10:29:35.645Z,100672.91
2022-08-22T10:32:49.621Z,100674.06
2022-08-22T10:36:13.701Z,100674.88
2022-08-22T10:39:29.604Z,100674.44
2022-08-22T10:42:43.138Z,100676.64
2022-08-22T10:45:57.608Z,100673.26
2022-08-22T10:49:15.393Z,100673.09
2022-08-22T10:52:35.664Z,100671.39
2022-08-22T10:55:56.791Z,100674.20
2022-08-22T10:59:19.736Z,100669.91
2022-08-22T11:06:21.620Z,100675.41
2022-08-22T11:09:36.386Z,100674.55
2022-08-22T11:12:44.736Z,100677.30
2022-08-22T11:16:11.959Z,100682.00
2022-08-22T11:19:40.626Z,100679.70
2022-08-22T11:23:21.362Z,100683.98
2022-08-22T11:27:01.249Z,100688.60
2022-08-22T11:30:20.200Z,100694.83
2022-08-22T11:33:47.097Z,100694.02
2022-08-22T11:36:59.523Z,100694.48
2022-08-22T11:40:16.394Z,100697.02
2022-08-22T11:43:36.765Z,100696.29
2022-08-22T11:46:44.954Z,100692.65
2022-08-22T11:50:10.743Z,100694.84
2022-08-22T11:53:33.632Z,100696.20
2022-08-22T11:56:55.632Z,100699.16
2022-08-22T12:00:36.719Z,100698.86
2022-08-22T12:04:14.249Z,100696.34
2022-08-22T12:07:20.182Z,100698.42
2022-08-22T12:10:40.686Z,100697.96
2022-08-22T12:14:05.901Z,100694.17
2022-08-22T12:17:55.027Z,100696.30
2022-08-22T12:22:00.236Z,100692.49
2022-08-22T12:25:17.074Z,100692.20
2022-08-22T12:28:38.672Z,100693.52
2022-08-22T12:32:22.792Z,100690.44
2022-08-22T12:35:51.677Z,100684.70
2022-08-22T12:39:59.689Z,100681.08
2022-08-22T12:43:27.314Z,100676.63
2022-08-22T12:46:53.549Z,100670.81
2022-08-22T12:50:21.691Z,100664.25
2022-08-22T12:53:52.374Z,100663.25
2022-08-22T12:59:10.627Z,100660.23
2022-08-22T13:01:44.773Z,100651.16
2022-08-22T13:04:54.272Z,100655.05
2022-08-22T13:08:19.787Z,100648.37
2022-08-22T13:11:40.519Z,100646.14
2022-08-22T13:14:56.295Z,100639.55
2022-08-22T13:18:25.288Z,100644.05
2022-08-22T13:21:39.470Z,100649.20
2022-08-22T13:24:57.690Z,100648.83
2022-08-22T13:28:20.670Z,100640.84
2022-08-22T13:31:34.158Z,100642.86
2022-08-22T13:34:47.727Z,100641.73
2022-08-22T13:38:12.299Z,100641.70
2022-08-22T13:41:29.960Z,100646.58
2022-08-22T13:44:40.700Z,100643.88
2022-08-22T13:48:11.394Z,100640.25
2022-08-22T13:51:22.523Z,100641.71
2022-08-22T13:54:47.718Z,100637.34
2022-08-22T13:58:01.110Z,100637.41
2022-08-22T14:01:28.749Z,100637.20
2022-08-22T14:04:40.818Z,100636.05
2022-08-22T14:07:55.968Z,100633.83
2022-08-22T14:11:15.704Z,100636.11
2022-08-22T14:14:35.021Z,100632.08
2022-08-22T14:17:42.912Z,100632.23
2022-08-22T14:21:01.766Z,100633.27
2022-08-22T14:24:14.715Z,100631.64
2022-08-22T14:27:17.114Z,100634.58
2022-08-22T14:30:25.411Z,100630.71
2022-08-22T14:33:34.575Z,100627.38
2022-08-22T14:36:48.326Z,100626.69
2022-08-22T14:39:48.987Z,100627.55
2022-08-22T14:42:56.426Z,100633.16
2022-08-22T14:46:06.731Z,100629.90
2022-08-22T14:49:39.780Z,100634.52
2022-08-22T14:53:00.882Z,100627.73
2022-08-22T14:56:19.794Z,100629.64
2022-08-22T14:59:45.759Z,100629.63
2022-08-22T15:02:49.676Z,100624.74
2022-08-22T15:06:10.978Z,100624.79
2022-08-22T15:09:23.750Z,100625.33
2022-08-22T15:12:32.422Z,100623.58
2022-08-22T15:15:53.604Z,100630.25
2022-08-22T15:19:06.733Z,100629.91
2022-08-22T15:22:16.020Z,100625.63
2022-08-22T15:25:23.908Z,100625.37
2022-08-22T15:28:29.764Z,100628.55
2022-08-22T15:31:55.200Z,100620.61
2022-08-22T15:35:01.765Z,100623.63
2022-08-22T15:38:30.564Z,100624.40
2022-08-22T15:41:46.773Z,100618.72
2022-08-22T15:44:52.440Z,100617.71
2022-08-22T15:47:57.515Z,100617.46
2022-08-22T15:51:12.490Z,100615.27
2022-08-22T15:54:27.030Z,100608.76
2022-08-22T15:57:41.827Z,100606.11
2022-08-22T16:01:19.958Z,100607.01
2022-08-22T16:04:48.045Z,100600.70
2022-08-22T16:07:59.788Z,100598.42
2022-08-22T16:11:34.711Z,100596.65
2022-08-22T16:14:56.366Z,100598.02
2022-08-22T16:18:08.699Z,100600.18
2022-08-22T16:21:21.811Z,100603.52
2022-08-22T16:25:03.276Z,100602.52
2022-08-22T16:28:56.853Z,100599.98
2022-08-22T16:32:15.184Z,100594.09
2022-08-22T16:35:18.794Z,100598.09
2022-08-22T16:38:56.799Z,100597.72
2022-08-22T16:43:01.879Z,100588.45
2022-08-22T16:46:43.123Z,100598.12
2022-08-22T16:50:17.588Z,100599.10
2022-08-22T16:54:17.173Z,100600.04
2022-08-22T16:58:04.915Z,100598.67
2022-08-22T17:01:29.310Z,100608.20
2022-08-22T17:04:44.369Z,100610.58
2022-08-22T17:08:05.377Z,100611.21
2022-08-22T17:11:20.635Z,100616.87
2022-08-22T17:14:44.830Z,100621.86
2022-08-22T17:17:59.873Z,100634.98
2022-08-22T17:21:18.699Z,100634.21
2022-08-22T17:24:32.185Z,100633.63
2022-08-22T17:27:58.917Z,100635.20
2022-08-22T17:31:21.133Z,100640.27
2022-08-22T17:34:35.971Z,100642.73
2022-08-22T17:37:55.739Z,100644.50
2022-08-22T17:41:14.855Z,100647.92
2022-08-22T17:44:25.848Z,100653.07
2022-08-22T17:47:33.403Z,100654.58
2022-08-22T17:50:42.427Z,100654.10
2022-08-22T17:53:57.881Z,100661.75
2022-08-22T17:57:12.816Z,100662.10
2022-08-22T18:00:36.892Z,100663.06
2022-08-22T18:03:58.005Z,100663.30
2022-08-22T18:07:39.988Z,100668.19
2022-08-22T18:10:52.056Z,100669.10
2022-08-22T18:14:15.916Z,100666.13
2022-08-22T18:17:36.867Z,100672.88
2022-08-22T18:21:05.885Z,100688.58
2022-08-22T18:24:36.185Z,100690.23
2022-08-22T18:27:42.797Z,100692.71
2022-08-22T18:31:09.909Z,100692.05
2022-08-22T18:34:33.911Z,100692.50
2022-08-22T18:37:58.905Z,100697.54
2022-08-22T18:41:26.939Z,100699.69
2022-08-22T18:44:40.864Z,100707.52
2022-08-22T18:47:48.597Z,100707.20
2022-08-22T18:50:56.090Z,100711.09
2022-08-22T18:54:26.570Z,100710.48
2022-08-22T18:58:12.921Z,100712.02
2022-08-22T19:01:56.940Z,100710.00
2022-08-22T19:05:49.914Z,100714.30
2022-08-22T19:09:39.853Z,100716.20
2022-08-22T19:17:28.997Z,100710.84
2022-08-22T19:21:00.025Z,100713.55
2022-08-22T19:24:01.207Z,100712.70
2022-08-22T19:27:36.016Z,100712.87
2022-08-22T19:30:47.361Z,100709.04
2022-08-22T19:34:47.086Z,100709.73
2022-08-22T19:38:04.998Z,100706.05
2022-08-22T19:41:09.022Z,100707.83
2022-08-22T19:44:33.193Z,100714.54
2022-08-22T19:47:40.762Z,100711.13
2022-08-22T19:50:55.825Z,100702.94
2022-08-22T19:54:28.057Z,100702.16
2022-08-22T19:57:46.370Z,100697.35
2022-08-22T20:00:53.979Z,100697.42
2022-08-22T20:04:03.090Z,100696.78
2022-08-22T20:07:14.664Z,100699.73
2022-08-22T20:10:36.519Z,100706.58
2022-08-22T20:13:45.040Z,100701.91
2022-08-22T20:17:08.561Z,100696.45
2022-08-22T20:20:35.403Z,100702.05
2022-08-22T20:23:47.573Z,100699.52
2022-08-22T20:27:23.061Z,100699.90
2022-08-22T20:30:33.088Z,100697.75
2022-08-22T20:33:59.915Z,100693.41
2022-08-22T20:37:39.896Z,100694.29
2022-08-22T20:40:57.225Z,100692.46
2022-08-22T20:44:06.747Z,100696.87
2022-08-22T20:47:21.373Z,100697.54
2022-08-22T20:50:29.025Z,100699.23
2022-08-22T20:53:41.667Z,100695.77
2022-08-22T20:56:53.262Z,100695.48
2022-08-22T21:00:07.197Z,100691.27
2022-08-22T21:03:13.394Z,100684.41
2022-08-22T21:06:29.071Z,100682.64
2022-08-22T21:09:55.186Z,100679.35
2022-08-22T21:13:16.783Z,100677.41
2022-08-22T21:16:18.056Z,100673.30
2022-08-22T21:19:34.087Z,100677.79
2022-08-22T21:22:47.070Z,100680.74
2022-08-22T21:26:05.030Z,100685.39
2022-08-22T21:29:09.868Z,100683.99
2022-08-22T21:32:29.195Z,100677.54
2022-08-22T21:35:30.959Z,100677.05
2022-08-22T21:38:30.792Z,100677.70
2022-08-22T21:41:39.415Z,100673.59
2022-08-22T21:44:44.480Z,100671.08
2022-08-22T21:47:58.753Z,100657.70
2022-08-22T21:50:58.315Z,100656.27
2022-08-22T21:54:16.119Z,100653.54
2022-08-22T21:57:34.924Z,100649.34
2022-08-22T22:01:01.376Z,100649.95
2022-08-22T22:04:04.218Z,100652.26
2022-08-22T22:07:04.925Z,100654.52
2022-08-22T22:10:08.398Z,100652.02
2022-08-22T22:13:09.217Z,100656.00
2022-08-22T22:16:13.227Z,100652.80
2022-08-22T22:19:14.711Z,100645.84
2022-08-22T22:22:13.932Z,100639.01
2022-08-22T22:25:40.263Z,100638.17
2022-08-22T22:28:43.973Z,100641.75
2022-08-22T22:31:50.901Z,100634.42
2022-08-22T22:34:47.209Z,100618.79
2022-08-22T22:37:43.990Z,100614.29
2022-08-22T22:40:43.184Z,100621.38
2022-08-22T22:43:40.106Z,100628.17
2022-08-22T22:46:36.018Z,100627.92
2022-08-22T22:49:34.128Z,100623.88
2022-08-22T22:52:31.428Z,100624.52
2022-08-22T22:55:34.730Z,100628.38
2022-08-22T22:58:33.749Z,100633.31
2022-08-22T23:01:34.888Z,100625.82
2022-08-22T23:04:30.483Z,100627.10
2022-08-22T23:07:27.584Z,100624.58
2022-08-22T23:10:27.339Z,100621.82
2022-08-22T23:13:22.192Z,100626.97
2022-08-22T23:16:18.639Z,100625.67
2022-08-22T23:19:17.322Z,100623.39
2022-08-22T23:22:15.019Z,100619.88
2022-08-22T23:25:16.271Z,100616.71
2022-08-22T23:28:12.828Z,100612.38
2022-08-22T23:31:26.324Z,100610.27
2022-08-22T23:34:22.709Z,100607.38
2022-08-22T23:37:22.984Z,100606.31
2022-08-22T23:40:18.231Z,100606.65
2022-08-22T23:43:12.341Z,100601.42
2022-08-22T23:46:07.997Z,100609.16
2022-08-22T23:49:03.253Z,100610.06
2022-08-22T23:51:58.346Z,100611.09
2022-08-22T23:54:55.533Z,100621.10
2022-08-22T23:57:50.130Z,100621.14
